Currently 90°F in Temecula, California, USA
90°F
91°F / 59°F
11 mph SW
0.00"
Thursday, June 22, 2017 3:22 PM PDT

Temecula, California Weather Summary
Last 36 Hours

Temperature Winds Hourly Humidity Dewpoint
Time Report Norm Report Norm Max Gusts Precip. Rpt. Norm Rpt. Norm Pressure
1Thu 03:22 PM  89.7°F  85°F  11 mph SW  10 mph  12 mph  0.00"  40%  36%  61°F  55°F  29.83"
Thu 03:00 PM  90.0°F  85°F  7 mph SW  10 mph  14 mph  0.00"  40%  36%  61°F  55°F  29.84"
2Thu 02:49 PM  90.6°F  86°F  8 mph SW  10 mph  12 mph  ----  38%  36%  61°F  55°F  29.85"
Thu 02:00 PM  88.0°F  85°F  7 mph S  10 mph  17 mph  0.00"  45%  36%  63°F  55°F  29.85"
Thu 01:00 PM  83.4°F  84°F  9 mph S  9 mph  15 mph  0.00"  53%  38%  64°F  55°F  29.87"
Thu 12:00 PM  78.8°F  82°F  7 mph SW  7 mph  14 mph  0.00"  61%  41%  64°F  55°F  29.89"
Thu 11:00 AM  74.7°F  79°F  7 mph SW  5 mph  15 mph  0.00"  68%  48%  63°F  57°F  29.90"
Thu 10:00 AM  70.3°F  73°F  7 mph S  2 mph  10 mph  0.00"  78%  60%  63°F  57°F  29.88"
Thu 09:00 AM  65.8°F  66°F  4 mph SW  1 mph  11 mph  0.00"  88%  73%  62°F  57°F  29.88"
Thu 08:00 AM  62.0°F  62°F  8 mph S  1 mph  10 mph  0.00"  93%  83%  60°F  56°F  29.88"
Thu 07:00 AM  59.7°F  59°F  2 mph S  calm  6 mph  0.00"  96%  89%  58°F  55°F  29.85"
3Thu 06:13 AM  59.1°F  58°F  2 mph S  1 mph  6 mph  ----  95%  89%  57°F  55°F  29.83"
Thu 06:00 AM  59.4°F  58°F  3 mph S  1 mph  8 mph  0.00"  94%  89%  58°F  55°F  29.83"
Thu 05:00 AM  60.2°F  59°F  4 mph S  1 mph  6 mph  0.00"  88%  88%  56°F  55°F  29.82"
Thu 04:00 AM  62.7°F  59°F  calm  1 mph  6 mph  0.00"  85%  87%  58°F  56°F  29.81"
Thu 03:00 AM  65.1°F  60°F  calm  1 mph  6 mph  0.00"  80%  86%  59°F  56°F  29.81"
Thu 02:00 AM  66.7°F  61°F  2 mph SE  1 mph  5 mph  0.00"  77%  85%  59°F  56°F  29.81"
Thu 01:00 AM  68.9°F  62°F  calm  1 mph  none  0.00"  71%  83%  59°F  56°F  29.82"
Thu 12:00 AM  71.0°F  63°F  calm  1 mph  4 mph  0.00"  68%  81%  59°F  57°F  29.82"
Wed 11:00 PM  71.8°F  64°F  2 mph S  1 mph  6 mph  0.00"  66%  78%  60°F  57°F  29.83"
Wed 10:00 PM  73.4°F  66°F  2 mph SE  2 mph  6 mph  0.00"  64%  73%  60°F  57°F  29.82"
Wed 09:00 PM  76.2°F  68°F  3 mph NE  3 mph  6 mph  0.00"  63%  66%  62°F  56°F  29.78"
Wed 08:00 PM  80.4°F  72°F  2 mph NW  4 mph  13 mph  0.00"  55%  57%  62°F  56°F  29.75"
Wed 07:00 PM  86.8°F  77°F  9 mph S  6 mph  14 mph  0.00"  43%  50%  61°F  56°F  29.73"
Wed 06:00 PM  89.0°F  80°F  6 mph SW  8 mph  16 mph  0.00"  40%  43%  61°F  55°F  29.72"
Wed 05:00 PM  92.7°F  83°F  9 mph S  9 mph  18 mph  0.00"  34%  40%  59°F  55°F  29.73"
Wed 04:00 PM  95.2°F  85°F  9 mph SW  10 mph  18 mph  0.00"  31%  37%  59°F  55°F  29.75"
Wed 03:00 PM  96.5°F  85°F  7 mph SW  10 mph  18 mph  0.00"  30%  37%  59°F  55°F  29.77"
Wed 02:00 PM  97.2°F  85°F  10 mph S  10 mph  15 mph  0.00"  27%  37%  56°F  55°F  29.80"
Wed 01:00 PM  98.0°F  84°F  9 mph S  9 mph  15 mph  0.00"  25%  38%  55°F  55°F  29.81"
Wed 12:00 PM  98.5°F  82°F  7 mph SW  7 mph  14 mph  0.00"  27%  41%  57°F  55°F  29.82"
Wed 11:00 AM  93.8°F  78°F  5 mph S  5 mph  9 mph  0.00"  29%  49%  56°F  57°F  29.84"
Wed 10:00 AM  84.8°F  72°F  calm  2 mph  3 mph  0.00"  40%  60%  57°F  57°F  29.85"
Wed 09:00 AM  78.1°F  66°F  calm  1 mph  2 mph  0.00"  54%  73%  60°F  57°F  29.85"
Wed 08:00 AM  70.6°F  61°F  calm  1 mph  none  0.00"  71%  84%  60°F  56°F  29.86"
Wed 07:00 AM  65.9°F  59°F  calm  calm  none  0.00"  81%  89%  60°F  55°F  29.86"
Wed 06:00 AM  65.3°F  58°F  calm  1 mph  none  0.00"  80%  89%  59°F  55°F  29.86"
Wed 05:00 AM  66.4°F  59°F  calm  1 mph  none  0.00"  78%  89%  59°F  55°F  29.85"
Wed 04:00 AM  68.0°F  59°F  calm  1 mph  none  0.00"  74%  88%  59°F  55°F  29.87"

  1. Current weather data. No green row appears if the current weather data is also the high or low for the current day.
  2. High temperature for the current day.
  3. Low temperature for the current day.

The Temecula weather pages are a service of WeatherCurrents. Temecula, California is located in the Temecula Valley, in southwestern Riverside County, along the Interstate 15 highway. The Temecula Valley's rolling hills are home to the Temecula wine country, vineyards, golf courses, a casino resort, and Old Town Temecula.
Copyright ©Thu Jun 22 15:23:25 PDT 2017  WeatherCurrents. All rights reserved. - Submit questions and comments - Privacy Policy

This page automatically refreshes every 10 minutes.